Wrangell Airport

Current Flights

Info
Name: Wrangell Airport
Identifier:  WRG/PAWG
Local Time:  18. Jun 08:41
City
Flights per Day
4 flights
Distance: 133km (83mi)
Punctuality
84% (0 flights per day delayed)
Delay Average: 5 minutes
Current Weather
 11 C (Humidity: 81%)
  5kt (9km/h / 5mph) from 110°
  Few clouds at 600 feet (182 meter)
  Broken clouds at 3,500 feet (1,066 meter)
  Overcast at 6,500 feet (1,981 meter)
  11km (7 mi.)
 Light/Moderate: Rain
 METAR PAWG 181556Z 11005KT 7SM -RA FEW006 BKN035 OVC065 11/08 A3009 RMK AO2 RAB1459 SLP191 P0001 T01060083

Current Delays

Departures
N/A
Arrivals
N/A

Destinations

Top Destinations
Airport Flights
per week
Seats
per week
  Ketchikan (KTN) 18 1,793 2 256
  Petersburg (PSG) 18 1,764 2 252
  Juneau (JNU) 0 - 0 0
  Seattle (SEA) 0 - 0 0

Airlines & Planes

Top Airlines
Airline Flights
per Day
Seats
per Day
  Alaska Airlines 4 508
Alaska Central Express 1 -
Top Plane Types
Model Flights Seats
Boeing B737-700 4.2/day 508/day 508.4
Beech 1900D 1.2/day - 0